Time;durP1;ratioP1;P1;durP2;ratioP2;P2;SDS_P1;SDS_P2;PMS_P1;PMS_P2;Temp;Humidity;BMP_temperature;BMP_pressure;BME280_temperature;BME280_humidity;BME280_pressure;Samples;Min_cycle;Max_cycle;Signal;HPM_P1;HPM_P2
2020/12/10 00:00:56;;;;;;;18.50;13.40;;;8.40;57.70;;;;;;5012512;28;20202;-40
2020/12/10 00:03:21;;;;;;;17.70;13.40;;;8.40;57.60;;;;;;5013071;28;20623;-40
2020/12/10 00:05:47;;;;;;;20.57;14.17;;;8.40;57.70;;;;;;5012562;28;20189;-40
2020/12/10 00:08:13;;;;;;;20.37;13.50;;;8.40;57.60;;;;;;5010787;28;20269;-40
2020/12/10 00:10:38;;;;;;;22.97;14.50;;;8.40;57.40;;;;;;5012679;28;20197;-40
2020/12/10 00:13:04;;;;;;;22.37;13.80;;;8.40;57.40;;;;;;5012790;28;20213;-40
2020/12/10 00:15:30;;;;;;;19.07;14.10;;;8.40;57.40;;;;;;5012535;28;20312;-40
2020/12/10 00:17:55;;;;;;;20.40;13.27;;;8.40;57.40;;;;;;5013069;28;20638;-40
2020/12/10 00:20:21;;;;;;;20.30;13.70;;;8.40;57.50;;;;;;5012153;28;20692;-40
2020/12/10 00:22:46;;;;;;;21.57;14.40;;;8.40;57.60;;;;;;5012691;28;20240;-40
2020/12/10 00:25:12;;;;;;;18.50;13.40;;;8.40;57.60;;;;;;5012226;28;20190;-40
2020/12/10 00:27:38;;;;;;;18.07;13.60;;;8.40;57.50;;;;;;5011786;28;20244;-40
2020/12/10 00:30:06;;;;;;;21.33;13.80;;;8.40;57.40;;;;;;5012277;28;20186;-40
2020/12/10 00:32:32;;;;;;;20.00;14.77;;;8.40;57.50;;;;;;5011608;28;20711;-40
2020/12/10 00:34:57;;;;;;;18.80;13.07;;;8.40;57.50;;;;;;5013049;28;20440;-39
2020/12/10 00:37:24;;;;;;;21.13;14.03;;;8.40;57.70;;;;;;5010140;28;20197;-40
2020/12/10 00:39:50;;;;;;;20.27;13.67;;;8.40;57.70;;;;;;5011811;28;20198;-40
2020/12/10 00:42:16;;;;;;;21.00;13.97;;;8.40;57.50;;;;;;5012548;28;20799;-41
2020/12/10 00:44:41;;;;;;;19.20;12.83;;;8.40;58.00;;;;;;5012370;28;20337;-40
2020/12/10 00:47:07;;;;;;;20.47;14.27;;;8.40;57.50;;;;;;5011577;28;20197;-40
2020/12/10 00:49:32;;;;;;;20.20;13.57;;;8.30;57.60;;;;;;5012593;28;20253;-40
2020/12/10 00:51:58;;;;;;;19.93;12.43;;;8.40;57.80;;;;;;5011557;28;20682;-40
2020/12/10 00:54:23;;;;;;;19.80;13.30;;;8.40;57.70;;;;;;5009077;28;20225;-40
2020/12/10 00:56:50;;;;;;;19.10;13.20;;;8.40;57.60;;;;;;5011198;28;20303;-40
2020/12/10 00:59:16;;;;;;;20.50;13.70;;;8.40;57.50;;;;;;5012439;28;20194;-40
2020/12/10 01:01:43;;;;;;;18.53;12.43;;;8.40;57.70;;;;;;5010923;28;20502;-40
2020/12/10 01:04:13;;;;;;;20.20;13.60;;;8.40;57.80;;;;;;5010499;28;20460;-40
2020/12/10 01:06:39;;;;;;;21.00;14.33;;;8.40;57.90;;;;;;5011514;28;20437;-40
2020/12/10 01:09:06;;;;;;;20.73;12.97;;;8.40;57.80;;;;;;5000755;28;20464;-40
2020/12/10 01:11:32;;;;;;;18.73;12.93;;;8.40;57.80;;;;;;5011397;28;20197;-40
2020/12/10 01:13:57;;;;;;;19.80;12.67;;;8.30;57.80;;;;;;5011757;28;20901;-40
2020/12/10 01:16:24;;;;;;;23.30;14.73;;;8.40;57.80;;;;;;5009773;28;20629;-40
2020/12/10 01:18:53;;;;;;;22.03;14.43;;;8.40;57.90;;;;;;5011674;28;20201;-40
2020/12/10 01:21:33;;;;;;;22.07;15.33;;;8.40;57.90;;;;;;5011352;28;20548;-40
2020/12/10 01:24:00;;;;;;;23.60;14.60;;;8.40;57.80;;;;;;5011574;28;20503;-40
2020/12/10 01:26:31;;;;;;;19.17;13.33;;;8.40;57.60;;;;;;5011126;28;20528;-40
2020/12/10 01:28:57;;;;;;;23.90;14.10;;;8.40;57.70;;;;;;5012152;28;20443;-40
2020/12/10 01:31:23;;;;;;;21.30;13.53;;;8.40;57.90;;;;;;5009001;28;20429;-40
2020/12/10 01:33:49;;;;;;;22.03;14.23;;;8.40;58.00;;;;;;5012266;28;20437;-40
2020/12/10 01:36:20;;;;;;;20.40;14.23;;;8.40;58.00;;;;;;5010820;28;20237;-40
2020/12/10 01:38:46;;;;;;;26.83;14.97;;;8.40;58.00;;;;;;5011967;28;20277;-41
2020/12/10 01:41:11;;;;;;;25.43;14.67;;;8.40;58.00;;;;;;5008998;28;20793;-40
2020/12/10 01:43:37;;;;;;;25.30;15.77;;;8.40;58.00;;;;;;5011246;28;20437;-40
2020/12/10 01:46:03;;;;;;;20.80;13.97;;;8.50;57.90;;;;;;5007268;28;20195;-40
2020/12/10 01:48:30;;;;;;;21.00;14.30;;;8.50;57.80;;;;;;5004397;28;20229;-40
2020/12/10 01:50:56;;;;;;;24.53;15.43;;;8.50;57.80;;;;;;5009742;28;20202;-40
2020/12/10 01:53:22;;;;;;;22.97;14.60;;;8.40;57.70;;;;;;5011386;28;20440;-40
2020/12/10 01:55:47;;;;;;;25.37;16.27;;;8.40;57.70;;;;;;5010497;28;20489;-40
2020/12/10 01:58:13;;;;;;;21.33;14.97;;;8.40;57.80;;;;;;5010979;28;20272;-40
2020/12/10 02:00:38;;;;;;;21.70;14.70;;;8.40;57.80;;;;;;5007316;28;20202;-40
2020/12/10 02:03:04;;;;;;;23.03;13.83;;;8.40;58.00;;;;;;5009796;28;20194;-40
2020/12/10 02:05:29;;;;;;;26.67;16.23;;;8.30;57.80;;;;;;5011276;28;20198;-39
2020/12/10 02:07:55;;;;;;;21.57;14.30;;;8.40;57.80;;;;;;5009454;28;20577;-40
2020/12/10 02:10:20;;;;;;;23.23;15.57;;;8.40;57.80;;;;;;5010593;28;20226;-40
2020/12/10 02:12:46;;;;;;;25.60;14.53;;;8.30;57.90;;;;;;5010524;28;20285;-40
2020/12/10 02:15:12;;;;;;;23.20;15.00;;;8.30;57.80;;;;;;5005413;28;20198;-40
2020/12/10 02:17:37;;;;;;;21.40;13.83;;;8.40;57.80;;;;;;5010699;28;20201;-40
2020/12/10 02:20:05;;;;;;;20.47;14.33;;;8.30;57.50;;;;;;5009913;28;20583;-40
2020/12/10 02:22:31;;;;;;;24.43;14.47;;;8.30;57.30;;;;;;5008255;28;20610;-40
2020/12/10 02:24:57;;;;;;;24.47;15.60;;;8.40;57.20;;;;;;5010848;28;20445;-40
2020/12/10 02:27:22;;;;;;;21.13;14.37;;;8.40;57.20;;;;;;5008024;28;20951;-40
2020/12/10 02:29:48;;;;;;;23.00;13.97;;;8.40;57.10;;;;;;5010204;28;20233;-40
2020/12/10 02:32:13;;;;;;;24.47;14.60;;;8.40;56.90;;;;;;5009769;28;20194;-39
2020/12/10 02:34:39;;;;;;;21.60;13.40;;;8.40;57.10;;;;;;5010350;28;20606;-40
2020/12/10 02:37:04;;;;;;;24.90;14.60;;;8.30;57.20;;;;;;5009901;28;20257;-40
2020/12/10 02:39:30;;;;;;;23.60;16.03;;;8.30;57.20;;;;;;5010912;28;20198;-40
2020/12/10 02:41:56;;;;;;;23.17;15.23;;;8.40;57.20;;;;;;5009615;28;20680;-40
2020/12/10 02:44:21;;;;;;;20.23;14.50;;;8.40;57.70;;;;;;5010172;28;20218;-40
2020/12/10 02:46:47;;;;;;;19.50;13.87;;;8.40;56.90;;;;;;5005206;28;20205;-40
2020/12/10 02:49:12;;;;;;;22.77;13.97;;;8.40;56.90;;;;;;5010344;28;20596;-40
2020/12/10 02:51:42;;;;;;;20.87;14.57;;;8.40;56.80;;;;;;5009591;28;20204;-40
2020/12/10 02:54:08;;;;;;;24.07;15.67;;;8.40;56.80;;;;;;5010254;28;20240;-40
2020/12/10 02:56:33;;;;;;;21.80;14.17;;;8.40;56.70;;;;;;5007779;28;20493;-40
2020/12/10 02:58:59;;;;;;;23.47;14.20;;;8.40;56.80;;;;;;5010394;28;20654;-40
2020/12/10 03:01:25;;;;;;;22.00;14.87;;;8.40;56.70;;;;;;5008830;28;20198;-40
2020/12/10 03:03:50;;;;;;;27.20;16.13;;;8.30;56.50;;;;;;5012768;28;20603;-40
2020/12/10 03:06:16;;;;;;;23.40;13.70;;;8.30;56.90;;;;;;5008966;28;20281;-40
2020/12/10 03:08:41;;;;;;;20.40;13.70;;;8.30;57.10;;;;;;5010917;28;20200;-40
2020/12/10 03:11:07;;;;;;;22.37;13.10;;;8.30;57.50;;;;;;5008844;28;20193;-40
2020/12/10 03:13:33;;;;;;;21.53;13.90;;;8.30;57.50;;;;;;5009850;28;20201;-40
2020/12/10 03:15:58;;;;;;;28.03;14.13;;;8.30;57.50;;;;;;5009478;28;20964;-40
2020/12/10 03:18:25;;;;;;;20.83;14.40;;;8.30;57.50;;;;;;5012712;28;20197;-40
2020/12/10 03:20:51;;;;;;;20.10;14.67;;;8.30;57.40;;;;;;5012892;28;20226;-40
2020/12/10 03:23:17;;;;;;;22.80;14.10;;;8.30;57.20;;;;;;5011228;28;20432;-40
2020/12/10 03:25:43;;;;;;;21.20;13.33;;;8.30;57.00;;;;;;5010938;28;20455;-40
2020/12/10 03:28:09;;;;;;;23.93;14.83;;;8.30;57.20;;;;;;5013237;28;20193;-40
2020/12/10 03:30:34;;;;;;;24.93;16.37;;;8.20;57.10;;;;;;5012753;28;20256;-40
2020/12/10 03:33:00;;;;;;;22.90;15.47;;;8.30;57.10;;;;;;5012509;28;20205;-40
2020/12/10 03:35:26;;;;;;;20.83;14.97;;;8.20;57.00;;;;;;5013687;28;20222;-40
2020/12/10 03:37:51;;;;;;;21.00;14.60;;;8.20;57.00;;;;;;5013360;28;20201;-40
2020/12/10 03:40:17;;;;;;;21.03;14.20;;;8.20;57.10;;;;;;5013562;28;20205;-40
2020/12/10 03:42:42;;;;;;;22.87;14.67;;;8.20;57.20;;;;;;5012457;28;20281;-40
2020/12/10 03:45:08;;;;;;;21.07;14.00;;;8.20;57.40;;;;;;5013248;28;20194;-40
2020/12/10 03:47:34;;;;;;;21.60;14.77;;;8.20;57.50;;;;;;5013227;28;20607;-40
2020/12/10 03:49:59;;;;;;;23.63;14.60;;;8.20;57.50;;;;;;5011796;28;20313;-40
2020/12/10 03:52:25;;;;;;;17.47;13.50;;;8.20;57.40;;;;;;5011905;28;20277;-40
2020/12/10 03:54:51;;;;;;;21.53;14.30;;;8.20;57.30;;;;;;5011642;28;20202;-40
2020/12/10 03:57:16;;;;;;;18.90;13.70;;;8.20;57.10;;;;;;5013136;28;20230;-40
2020/12/10 03:59:42;;;;;;;19.50;13.93;;;8.20;57.10;;;;;;5012673;28;20629;-40
2020/12/10 04:02:07;;;;;;;23.13;13.77;;;8.30;57.00;;;;;;5013081;28;20288;-40
2020/12/10 04:04:33;;;;;;;17.47;12.53;;;8.30;56.80;;;;;;5013241;28;20654;-40
2020/12/10 04:06:58;;;;;;;22.33;14.17;;;8.30;56.30;;;;;;5012478;28;20262;-40
2020/12/10 04:09:24;;;;;;;23.37;14.40;;;8.30;56.00;;;;;;5013678;28;20194;-39
2020/12/10 04:11:49;;;;;;;20.60;13.00;;;8.30;56.50;;;;;;5012516;28;20693;-40
2020/12/10 04:14:15;;;;;;;19.77;12.97;;;8.30;56.80;;;;;;5012615;28;20194;-40
2020/12/10 04:16:41;;;;;;;22.33;14.63;;;8.30;56.80;;;;;;5011967;28;20308;-40
2020/12/10 04:19:06;;;;;;;21.00;14.10;;;8.30;56.70;;;;;;5011469;28;20230;-40
2020/12/10 04:21:32;;;;;;;18.17;13.27;;;8.30;56.60;;;;;;5011682;28;20253;-40
2020/12/10 04:23:57;;;;;;;23.67;13.70;;;8.30;56.80;;;;;;5011890;28;20198;-40
2020/12/10 04:26:23;;;;;;;20.87;13.90;;;8.30;56.90;;;;;;5011614;28;20277;-40
2020/12/10 04:28:48;;;;;;;22.33;14.60;;;8.30;56.90;;;;;;5012743;28;20202;-40
2020/12/10 04:31:16;;;;;;;23.53;14.43;;;8.30;56.80;;;;;;5011625;28;20554;-40
2020/12/10 04:33:42;;;;;;;22.50;15.43;;;8.30;57.00;;;;;;5012214;28;20255;-40
2020/12/10 04:36:08;;;;;;;24.33;15.20;;;8.40;57.20;;;;;;5011295;28;20492;-40
2020/12/10 04:38:34;;;;;;;22.37;14.93;;;8.40;57.40;;;;;;5012745;28;20193;-40
2020/12/10 04:41:04;;;;;;;22.20;14.90;;;8.40;57.50;;;;;;5010844;28;20293;-40
2020/12/10 04:43:30;;;;;;;21.70;13.97;;;8.40;57.70;;;;;;5010502;28;20924;-40
2020/12/10 04:46:01;;;;;;;24.03;15.40;;;8.40;57.80;;;;;;5009704;28;20452;-40
2020/12/10 04:48:29;;;;;;;22.50;17.13;;;8.40;57.80;;;;;;5010665;28;20295;-40
2020/12/10 04:50:57;;;;;;;24.10;14.10;;;8.40;57.90;;;;;;5011657;28;20441;-40
2020/12/10 04:53:24;;;;;;;22.17;14.50;;;8.40;58.00;;;;;;5011926;28;20519;-39
2020/12/10 04:55:52;;;;;;;25.90;16.80;;;8.40;57.80;;;;;;5011321;28;20490;-40
2020/12/10 04:58:18;;;;;;;24.27;15.50;;;8.40;57.60;;;;;;5012481;28;20511;-40
2020/12/10 05:00:44;;;;;;;22.23;15.60;;;8.40;57.60;;;;;;5015838;28;20920;-40
2020/12/10 05:03:10;;;;;;;23.37;16.33;;;8.30;57.60;;;;;;5011341;28;20565;-40
2020/12/10 05:05:36;;;;;;;23.80;15.67;;;8.30;57.60;;;;;;5011846;28;20197;-40
2020/12/10 05:08:03;;;;;;;27.33;17.30;;;8.20;57.60;;;;;;5010970;28;20433;-40
2020/12/10 05:10:41;;;;;;;24.50;17.10;;;8.20;57.80;;;;;;5012051;28;20516;-40
2020/12/10 05:13:09;;;;;;;27.60;16.37;;;8.30;57.80;;;;;;5011721;28;20447;-40
2020/12/10 05:15:36;;;;;;;27.53;15.57;;;8.20;57.70;;;;;;5010003;28;20479;-40
2020/12/10 05:18:10;;;;;;;23.63;15.80;;;8.10;57.90;;;;;;5011086;28;20812;-40
2020/12/10 05:20:40;;;;;;;24.00;16.23;;;8.10;58.10;;;;;;5011616;28;20453;-40
2020/12/10 05:23:09;;;;;;;21.03;14.40;;;8.00;58.00;;;;;;5011294;28;20429;-40
2020/12/10 05:25:45;;;;;;;26.20;16.37;;;8.10;58.10;;;;;;5008470;28;20444;-40
2020/12/10 05:28:11;;;;;;;23.60;15.03;;;8.10;58.20;;;;;;5011904;28;20531;-40
2020/12/10 05:30:37;;;;;;;26.53;15.90;;;8.10;58.10;;;;;;5011230;28;20524;-40
2020/12/10 05:33:13;;;;;;;25.67;15.73;;;8.10;58.00;;;;;;5010997;28;20252;-39
2020/12/10 05:35:40;;;;;;;27.00;16.07;;;8.10;57.90;;;;;;5011120;28;20287;-39
2020/12/10 05:38:11;;;;;;;24.90;16.13;;;8.10;58.10;;;;;;5011630;28;20846;-40
2020/12/10 05:40:38;;;;;;;22.20;15.23;;;8.20;57.90;;;;;;5008313;28;20440;-40
2020/12/10 05:43:04;;;;;;;22.00;14.20;;;8.20;57.90;;;;;;5009824;28;20462;-40
2020/12/10 05:45:29;;;;;;;24.20;14.97;;;8.10;58.20;;;;;;5011119;28;20443;-40
2020/12/10 05:47:57;;;;;;;24.23;15.10;;;8.10;58.10;;;;;;5009264;28;20269;-40
2020/12/10 05:50:25;;;;;;;28.50;17.33;;;8.20;58.10;;;;;;5006287;28;20610;-40
2020/12/10 05:52:59;;;;;;;21.57;13.80;;;8.20;57.90;;;;;;5010445;28;20441;-39
2020/12/10 05:55:25;;;;;;;19.57;14.57;;;8.20;58.00;;;;;;5011817;28;20783;-40
2020/12/10 05:57:51;;;;;;;23.60;13.17;;;8.10;57.70;;;;;;5010944;28;20456;-40
2020/12/10 06:00:16;;;;;;;20.37;13.53;;;7.90;57.70;;;;;;5010947;28;20689;-40
2020/12/10 06:02:42;;;;;;;21.83;14.27;;;7.80;57.70;;;;;;5010472;28;21002;-40
2020/12/10 06:05:09;;;;;;;22.90;13.73;;;7.80;58.00;;;;;;5010919;28;20263;-40
2020/12/10 06:07:35;;;;;;;22.23;14.93;;;7.80;57.90;;;;;;5010200;28;20198;-40
2020/12/10 06:10:01;;;;;;;19.93;13.97;;;7.90;58.40;;;;;;5017851;28;20475;-40
2020/12/10 06:12:27;;;;;;;21.40;14.40;;;8.00;57.80;;;;;;5010430;28;21239;-40
2020/12/10 06:14:54;;;;;;;25.07;16.10;;;8.00;57.40;;;;;;5010746;28;20433;-40
2020/12/10 06:17:20;;;;;;;22.37;13.97;;;8.10;57.30;;;;;;5009809;28;20245;-40
2020/12/10 06:19:46;;;;;;;20.83;14.03;;;8.10;57.10;;;;;;5010326;28;20433;-40
2020/12/10 06:22:33;;;;;;;20.13;15.03;;;8.20;57.10;;;;;;5008493;28;20425;-40
2020/12/10 06:25:04;;;;;;;20.40;13.90;;;8.20;57.20;;;;;;5010271;28;20194;-40
2020/12/10 06:27:33;;;;;;;22.83;14.37;;;8.20;57.00;;;;;;5010193;28;20452;-40
2020/12/10 06:30:15;;;;;;;21.90;14.37;;;8.30;57.00;;;;;;5011010;28;20842;-40
2020/12/10 06:32:46;;;;;;;22.93;14.63;;;8.20;57.00;;;;;;5009845;28;20520;-40
2020/12/10 06:35:26;;;;;;;23.23;15.63;;;8.10;57.30;;;;;;5006705;28;20435;-40
2020/12/10 06:37:52;;;;;;;19.93;12.77;;;8.20;57.50;;;;;;5008578;28;20451;-40
2020/12/10 06:40:35;;;;;;;23.40;15.57;;;8.20;57.30;;;;;;5009695;28;20807;-40
2020/12/10 06:43:02;;;;;;;17.33;12.37;;;8.20;57.30;;;;;;5009889;28;20285;-40
2020/12/10 06:45:34;;;;;;;23.03;14.03;;;8.30;58.80;;;;;;5010357;28;20463;-40
2020/12/10 06:48:08;;;;;;;24.17;14.87;;;8.70;61.00;;;;;;5008031;28;20433;-40
2020/12/10 06:50:37;;;;;;;22.10;13.87;;;9.00;60.60;;;;;;5006695;28;20448;-40
2020/12/10 06:53:15;;;;;;;23.10;14.27;;;9.30;59.20;;;;;;5009497;28;20437;-40
2020/12/10 06:55:59;;;;;;;20.63;15.20;;;9.60;58.50;;;;;;5009336;28;20488;-40
2020/12/10 06:58:33;;;;;;;20.13;13.20;;;9.80;57.50;;;;;;5006825;28;20453;-40
2020/12/10 07:00:59;;;;;;;20.00;13.50;;;10.00;55.70;;;;;;5008710;28;20524;-40
2020/12/10 07:03:30;;;;;;;19.97;13.13;;;10.10;54.90;;;;;;5009866;28;20527;-41
2020/12/10 07:05:56;;;;;;;19.67;13.73;;;10.10;54.50;;;;;;5008004;28;20194;-40
2020/12/10 07:08:22;;;;;;;21.20;13.47;;;10.20;54.00;;;;;;5009269;28;21294;-40
2020/12/10 07:10:50;;;;;;;20.10;14.50;;;10.20;53.50;;;;;;5009445;28;20197;-40
2020/12/10 07:13:28;;;;;;;19.10;12.10;;;10.20;52.90;;;;;;5009723;28;20473;-40
2020/12/10 07:15:54;;;;;;;18.70;12.47;;;10.20;52.70;;;;;;5007952;28;20484;-40
2020/12/10 07:18:20;;;;;;;19.17;12.67;;;10.20;52.70;;;;;;5009764;28;20437;-40
2020/12/10 07:20:46;;;;;;;17.50;13.43;;;10.30;52.70;;;;;;5009390;28;20483;-40
2020/12/10 07:23:12;;;;;;;18.30;14.20;;;10.30;52.50;;;;;;5009690;28;20252;-41
2020/12/10 07:25:37;;;;;;;19.87;14.10;;;10.40;52.50;;;;;;5010169;28;20702;-40
2020/12/10 07:28:03;;;;;;;22.90;14.80;;;10.50;52.30;;;;;;5008710;28;20982;-40
2020/12/10 07:30:31;;;;;;;20.87;13.87;;;10.50;51.80;;;;;;5007450;28;20198;-40
2020/12/10 07:32:59;;;;;;;16.90;13.27;;;10.60;52.20;;;;;;5005801;28;20256;-40
2020/12/10 07:35:35;;;;;;;19.37;13.43;;;10.50;51.60;;;;;;5009305;28;20447;-40
2020/12/10 07:38:12;;;;;;;16.10;12.63;;;10.60;51.50;;;;;;5008872;28;20811;-40
2020/12/10 07:40:38;;;;;;;18.70;13.37;;;10.60;51.80;;;;;;5003387;28;20527;-40
2020/12/10 07:43:06;;;;;;;21.07;13.47;;;10.50;51.80;;;;;;5009825;28;20428;-40
2020/12/10 07:45:33;;;;;;;21.47;14.40;;;10.50;51.50;;;;;;5009203;28;20444;-40
2020/12/10 07:48:03;;;;;;;19.60;14.23;;;10.60;51.30;;;;;;5007958;28;20451;-40
2020/12/10 07:50:31;;;;;;;23.13;15.50;;;10.60;51.00;;;;;;4997092;28;20457;-41
2020/12/10 07:52:57;;;;;;;22.37;13.77;;;10.50;51.00;;;;;;5001680;28;20531;-40
2020/12/10 07:55:27;;;;;;;20.87;12.87;;;10.60;51.10;;;;;;5007016;28;20479;-40
2020/12/10 07:57:59;;;;;;;21.70;14.77;;;10.50;50.90;;;;;;5009625;28;20441;-40
2020/12/10 08:00:28;;;;;;;23.67;14.77;;;10.40;51.20;;;;;;5005703;28;20445;-40
2020/12/10 08:03:15;;;;;;;23.83;13.80;;;10.50;51.30;;;;;;5012181;28;20437;-40
2020/12/10 08:05:43;;;;;;;25.10;15.73;;;10.60;51.20;;;;;;5011409;28;20448;-41
2020/12/10 08:08:09;;;;;;;23.63;16.00;;;10.60;51.00;;;;;;5011740;28;20443;-41
2020/12/10 08:10:35;;;;;;;28.23;18.23;;;10.50;50.90;;;;;;5012088;28;20479;-40
2020/12/10 08:13:17;;;;;;;27.50;16.33;;;10.50;51.00;;;;;;5011195;28;20436;-41
2020/12/10 08:15:45;;;;;;;22.97;16.40;;;10.60;51.20;;;;;;5011005;28;20217;-41
2020/12/10 08:18:13;;;;;;;27.20;16.17;;;10.60;51.00;;;;;;5019044;28;20828;-40
2020/12/10 08:20:50;;;;;;;28.03;17.17;;;10.60;51.10;;;;;;5011026;28;20465;-40
2020/12/10 08:23:17;;;;;;;24.77;17.33;;;10.70;51.10;;;;;;5010410;28;20448;-40
2020/12/10 08:25:45;;;;;;;24.40;18.00;;;10.70;51.00;;;;;;5010474;28;20441;-41
2020/12/10 08:28:12;;;;;;;22.93;15.00;;;10.70;51.10;;;;;;5012712;28;20425;-40
2020/12/10 08:30:55;;;;;;;22.33;14.80;;;10.70;50.70;;;;;;5010689;28;20429;-40
2020/12/10 08:33:21;;;;;;;22.97;14.93;;;10.50;50.90;;;;;;5001748;28;20524;-41
2020/12/10 08:35:47;;;;;;;27.97;16.90;;;10.60;51.20;;;;;;5011789;28;20571;-40
2020/12/10 08:38:13;;;;;;;25.23;15.93;;;10.60;51.10;;;;;;5012054;28;20195;-40
2020/12/10 08:40:39;;;;;;;23.90;16.50;;;10.70;51.10;;;;;;5012150;28;20440;-41
2020/12/10 08:43:13;;;;;;;20.97;15.77;;;10.60;50.90;;;;;;5011975;28;20798;-40
2020/12/10 08:45:44;;;;;;;23.67;16.20;;;10.60;51.20;;;;;;5012296;28;20556;-40
2020/12/10 08:48:15;;;;;;;27.40;16.70;;;10.60;51.20;;;;;;5001964;28;20476;-40
2020/12/10 08:50:51;;;;;;;26.43;17.33;;;10.60;51.50;;;;;;5011334;28;20478;-40
2020/12/10 08:53:17;;;;;;;23.43;16.67;;;10.50;50.90;;;;;;5004804;28;20433;-41
2020/12/10 08:55:50;;;;;;;24.17;16.83;;;10.40;51.40;;;;;;5012676;28;20853;-40
2020/12/10 08:58:18;;;;;;;25.30;16.43;;;10.40;51.80;;;;;;5009713;28;20650;-40
2020/12/10 09:00:44;;;;;;;24.23;16.30;;;10.40;51.80;;;;;;5007512;28;20473;-41
2020/12/10 09:03:10;;;;;;;22.50;14.20;;;10.40;51.90;;;;;;5011992;28;20433;-40
2020/12/10 09:05:36;;;;;;;25.10;16.80;;;10.40;51.90;;;;;;5011658;28;20574;-40
2020/12/10 09:08:01;;;;;;;23.40;15.47;;;10.40;51.60;;;;;;5009401;28;20186;-40
2020/12/10 09:10:30;;;;;;;29.73;16.77;;;10.50;51.30;;;;;;5010827;28;20209;-40
2020/12/10 09:12:57;;;;;;;21.80;14.63;;;10.20;51.70;;;;;;5003718;28;20194;-40
2020/12/10 09:15:23;;;;;;;21.87;15.37;;;10.30;52.10;;;;;;5009041;28;20437;-40
2020/12/10 09:17:49;;;;;;;24.40;15.77;;;10.50;52.10;;;;;;5001963;28;20449;-40
2020/12/10 09:20:14;;;;;;;24.13;15.37;;;10.60;51.70;;;;;;5010948;28;20198;-40
2020/12/10 09:22:40;;;;;;;21.47;16.17;;;10.50;51.00;;;;;;5011438;28;20577;-41
2020/12/10 09:25:05;;;;;;;29.87;18.03;;;10.50;51.50;;;;;;5009799;28;20300;-41
2020/12/10 09:27:33;;;;;;;25.10;16.53;;;10.50;51.60;;;;;;5008447;28;20194;-41
2020/12/10 09:29:59;;;;;;;22.43;14.67;;;10.60;51.70;;;;;;5011144;28;20201;-40
2020/12/10 09:32:25;;;;;;;23.53;16.00;;;10.50;51.50;;;;;;5013983;28;20449;-41
2020/12/10 09:34:52;;;;;;;22.20;14.63;;;10.40;51.10;;;;;;5014031;28;20312;-41
2020/12/10 09:37:17;;;;;;;27.83;15.97;;;10.60;51.40;;;;;;5013504;28;20692;-40
2020/12/10 09:39:43;;;;;;;20.40;14.80;;;10.60;51.40;;;;;;5010508;28;20440;-40
2020/12/10 09:42:09;;;;;;;19.50;13.60;;;10.60;51.10;;;;;;5007931;28;20202;-40
2020/12/10 09:44:34;;;;;;;21.87;14.43;;;10.70;51.20;;;;;;5006518;28;20201;-41
2020/12/10 09:47:00;;;;;;;26.07;17.40;;;10.80;51.30;;;;;;5004626;28;20193;-41
2020/12/10 09:49:26;;;;;;;19.87;13.40;;;10.90;51.30;;;;;;5008094;28;20234;-40
2020/12/10 09:51:58;;;;;;;24.50;15.53;;;10.90;51.30;;;;;;5009709;28;20273;-40
2020/12/10 09:59:25;;;;;;;22.00;15.10;;;10.70;51.30;;;;;;5010042;28;20440;-39
2020/12/10 10:01:51;;;;;;;24.17;13.87;;;10.50;51.50;;;;;;5010901;28;20527;-41
2020/12/10 10:04:16;;;;;;;17.77;12.40;;;10.50;51.50;;;;;;5010524;28;20576;-41
2020/12/10 10:06:43;;;;;;;20.50;13.80;;;10.50;51.50;;;;;;5004655;28;20201;-40
2020/12/10 10:09:09;;;;;;;16.43;9.90;;;10.50;51.90;;;;;;5009114;28;20190;-40
2020/12/10 10:11:35;;;;;;;12.40;8.43;;;10.50;51.40;;;;;;5008723;28;20810;-40
2020/12/10 10:14:00;;;;;;;10.73;7.67;;;10.50;51.00;;;;;;5010038;28;20452;-40
2020/12/10 10:16:30;;;;;;;12.20;7.90;;;10.40;50.80;;;;;;5007310;28;20233;-40
2020/12/10 10:18:57;;;;;;;6.40;5.30;;;10.30;50.90;;;;;;5006443;28;20193;-40
2020/12/10 10:21:23;;;;;;;7.83;6.20;;;10.20;50.20;;;;;;5011769;28;20470;-39
2020/12/10 10:23:49;;;;;;;9.33;6.80;;;10.20;50.60;;;;;;5008883;28;20426;-40
2020/12/10 10:26:15;;;;;;;8.23;6.30;;;10.30;51.00;;;;;;5010230;28;20201;-40
2020/12/10 10:28:42;;;;;;;6.90;5.63;;;10.40;51.10;;;;;;5008516;28;20447;-40
2020/12/10 10:31:08;;;;;;;8.03;5.90;;;10.50;51.00;;;;;;5010645;28;20433;-40
2020/12/10 10:33:34;;;;;;;6.60;5.20;;;10.60;50.90;;;;;;5010846;28;20419;-40
2020/12/10 10:36:01;;;;;;;7.50;5.37;;;10.70;50.60;;;;;;5009700;28;20226;-40
2020/12/10 10:38:27;;;;;;;7.70;6.73;;;10.60;49.30;;;;;;5009543;28;20198;-40
2020/12/10 10:40:53;;;;;;;8.03;6.50;;;10.60;49.50;;;;;;5009067;28;20436;-40
2020/12/10 10:43:18;;;;;;;10.30;7.17;;;10.60;49.70;;;;;;5011043;28;20209;-40
2020/12/10 10:45:44;;;;;;;8.10;6.40;;;10.60;50.30;;;;;;4995415;28;20565;-40
2020/12/10 10:48:10;;;;;;;15.47;10.33;;;10.60;50.10;;;;;;5010133;28;20233;-40
2020/12/10 10:50:35;;;;;;;11.60;8.77;;;10.50;49.90;;;;;;5010327;28;20220;-40
2020/12/10 10:53:01;;;;;;;8.73;6.77;;;10.70;50.10;;;;;;5009276;28;20599;-40
2020/12/10 10:55:27;;;;;;;6.83;5.60;;;10.70;50.00;;;;;;4995485;28;20201;-40
2020/12/10 10:57:52;;;;;;;10.60;7.20;;;10.80;49.90;;;;;;5008846;28;20441;-40
2020/12/10 11:00:18;;;;;;;7.83;5.90;;;10.70;49.40;;;;;;5008020;28;20531;-40
2020/12/10 11:02:43;;;;;;;8.40;7.10;;;10.80;50.10;;;;;;5008739;28;20206;-40
2020/12/10 11:05:09;;;;;;;9.30;7.40;;;10.90;49.80;;;;;;5007472;28;20194;-39
2020/12/10 11:07:36;;;;;;;10.53;7.57;;;11.00;49.40;;;;;;5005101;28;20193;-40
2020/12/10 11:10:03;;;;;;;11.17;8.27;;;11.10;49.20;;;;;;5010177;28;20630;-39
2020/12/10 11:12:29;;;;;;;12.00;8.70;;;11.20;49.20;;;;;;5007952;28;20492;-40
2020/12/10 11:14:54;;;;;;;14.63;10.17;;;11.10;49.00;;;;;;5007760;28;20489;-40
2020/12/10 11:17:20;;;;;;;11.40;8.43;;;11.00;48.80;;;;;;5005569;28;20230;-39
2020/12/10 11:19:45;;;;;;;13.93;9.20;;;10.80;50.30;;;;;;5006725;28;20243;-40
2020/12/10 11:22:11;;;;;;;12.40;9.87;;;10.80;50.40;;;;;;5008239;28;20201;-40
2020/12/10 11:24:37;;;;;;;14.80;10.50;;;10.60;49.30;;;;;;5008254;28;20653;-40
2020/12/10 11:27:02;;;;;;;14.90;9.90;;;10.50;50.30;;;;;;5008485;28;20200;-40
2020/12/10 11:29:28;;;;;;;15.83;9.10;;;10.10;50.00;;;;;;5008203;28;21549;-40
2020/12/10 11:31:54;;;;;;;14.60;9.80;;;10.20;50.80;;;;;;5008285;28;20253;-40
2020/12/10 11:34:20;;;;;;;10.67;8.27;;;10.50;50.80;;;;;;5007061;28;20198;-40
2020/12/10 11:36:46;;;;;;;11.57;8.40;;;10.70;50.50;;;;;;5006798;28;20909;-39
2020/12/10 11:39:12;;;;;;;13.23;10.03;;;10.70;49.90;;;;;;5010227;28;20312;-40
2020/12/10 11:41:38;;;;;;;17.73;10.60;;;10.80;49.20;;;;;;5010854;28;20448;-40
2020/12/10 11:44:04;;;;;;;15.50;10.97;;;11.00;49.30;;;;;;5012691;28;20459;-40
2020/12/10 11:46:29;;;;;;;14.43;10.33;;;11.10;49.50;;;;;;5005213;28;20198;-40
2020/12/10 11:48:55;;;;;;;14.40;9.23;;;11.10;49.40;;;;;;5007773;28;20261;-39
2020/12/10 11:51:21;;;;;;;14.37;10.17;;;11.10;49.70;;;;;;5012791;28;20217;-39
2020/12/10 11:53:49;;;;;;;15.53;10.33;;;11.20;49.30;;;;;;5005154;28;20654;-39
2020/12/10 11:56:15;;;;;;;17.60;11.47;;;11.30;48.90;;;;;;5012565;28;20229;-39
2020/12/10 11:58:41;;;;;;;17.23;11.82;;;11.20;49.00;;;;;;5012785;28;20917;-40
2020/12/10 12:01:07;;;;;;;11.83;8.60;;;11.30;49.30;;;;;;5003379;28;20190;-40
2020/12/10 12:03:33;;;;;;;15.97;10.60;;;11.40;51.20;;;;;;5013581;28;20425;-39
2020/12/10 12:05:58;;;;;;;14.40;10.07;;;11.60;52.10;;;;;;5011051;28;20193;-40
2020/12/10 12:08:28;;;;;;;15.40;10.07;;;11.80;50.00;;;;;;5002182;28;20202;-40
2020/12/10 12:10:55;;;;;;;13.10;10.23;;;12.00;50.20;;;;;;5012735;28;20578;-39
2020/12/10 12:13:21;;;;;;;14.90;11.07;;;12.20;50.30;;;;;;5013186;28;20851;-39
2020/12/10 12:15:47;;;;;;;14.80;10.73;;;12.40;49.80;;;;;;5009788;28;20476;-39
2020/12/10 12:18:16;;;;;;;17.20;10.80;;;12.50;49.90;;;;;;5011914;28;20425;-39
2020/12/10 12:20:42;;;;;;;13.67;10.00;;;12.70;49.20;;;;;;5012734;28;20426;-40
2020/12/10 12:23:08;;;;;;;14.50;9.83;;;12.90;49.20;;;;;;5011523;28;20471;-40
2020/12/10 12:25:35;;;;;;;13.17;9.67;;;13.00;48.80;;;;;;5012690;28;20429;-39
2020/12/10 12:28:00;;;;;;;18.03;12.43;;;13.10;47.90;;;;;;5012222;28;20289;-40
2020/12/10 12:30:26;;;;;;;14.30;9.90;;;13.20;48.10;;;;;;5008276;28;20470;-40
2020/12/10 12:32:52;;;;;;;12.40;8.60;;;13.30;47.90;;;;;;5009085;28;20197;-40
2020/12/10 12:35:17;;;;;;;9.83;6.10;;;13.40;48.40;;;;;;5010473;28;20198;-39
2020/12/10 12:37:44;;;;;;;12.90;9.87;;;13.40;49.10;;;;;;5010001;28;20672;-39